Rockford, IL (61104)

9:02 PM CST on February 13, 2016 (GMT -0600)
Midtown Rockford | | Change Station
CLOSE
Current Station
Personal Weather Station
Location: Rockford, IL
Elevation: 748 ft
Nearby Weather Stations
Active Advisory: Winter Weather Advisory

Elev 748 ft 42.26 °N, 89.08 °W | Updated 14 minutes ago

Mostly Cloudy
Mostly Cloudy
8.6 °F
Feels Like 9 °F
N
0.0
Wind Variable Wind from SSW

Today
High -- | Low -- °F
--% Chance of Precip.
Yesterday
High -- | Low -- °F
Precip. -- in
Pressure 30.54 in
Visibility 10.0 miles
Clouds Mostly Cloudy 22000 ft
Mostly Cloudy 25000 ft
Windchill 9 °F
Dew Point -0 °F
Humidity 66%
Rainfall 0.00 in
Snow Depth Not available.
6:55 AM 5:25 PM
Waxing Crescent, 37% visible
METAR KRFD 140254Z 13003KT 10SM BKN220 BKN250 M13/M18 A3048 RMK AO2 SLP340 T11281178 57012 $
Pressure 30.54 in
Visibility 10.0 miles
Clouds Mostly Cloudy 22000 ft
Mostly Cloudy 25000 ft
Windchill 9 °F
Dew Point -0 °F
Humidity 66%
Rainfall 0.00 in
Snow Depth Not available.
6:55 AM 5:25 PM
Waxing Crescent, 37% visible
METAR KRFD 140254Z 13003KT 10SM BKN220 BKN250 M13/M18 A3048 RMK AO2 SLP340 T11281178 57012 $

10-Day Weather Forecast

Almanac

Astronomy

Feb. 13, 2016 Rise Set
Actual Time
Civil Twilight
Nautical Twilight
Astronomical Twilight
Moon
Length of Visible Light
Length of Day
Tomorrow will be .
, % of the Moon is Illuminated

Today's Extremes

State Highs State Lows

Community

WunderPhotos

Upload Photos

1,892,731 photos uploaded!

WunderBlog® & News

Nearby

Air Quality

  Air Quality AQ Index Pollutant
Not available.

Snow Depth

Station Depth Elevation

Earthquake Activity

City Distance Mag. Time & Date
Minimum magnitude displayed is 2.5.

Coastal Water Temperatures

Place Temperature

Stations

Nearby Weather Stations

Station Location Temp. Windchill Dew Point Humidity Wind Precip. Elev Updated Type
                   

Watches & Warnings

Winter Weather Advisory
Issued: 8:50 PM CST Feb. 13, 2016 – National Weather Service

... Winter Weather Advisory remains in effect from 6 am Sunday to
midnight CST Sunday night...

* timing... Sunday morning through Sunday evening.

* Snow accumulation... 3 to 5 inches storm total.

* Winds... southeast 15 to 25 mph.

* Main impact... snow accumulation on untreated roads and
surfaces will make travel hazardous. Blowing and drifting snow
will also be possible.

Precautionary/preparedness actions...

A Winter Weather Advisory for snow means that periods of snow
will cause primarily travel difficulties. Be prepared for snow
covered roads and limited visibilities... and use caution while
driving.



Izzi